createdAt,value
2022-12-03T00:00:16.042Z,102622.63
2022-12-03T00:02:42.679Z,102619.56
2022-12-03T00:05:10.140Z,102622.78
2022-12-03T00:07:36.598Z,102614.66
2022-12-03T00:10:04.294Z,102609.06
2022-12-03T00:12:30.728Z,102616.72
2022-12-03T00:14:57.407Z,102613.16
2022-12-03T00:17:23.875Z,102618.16
2022-12-03T00:19:50.423Z,102616.16
2022-12-03T00:22:16.793Z,102617.97
2022-12-03T00:24:43.103Z,102615.53
2022-12-03T00:27:09.638Z,102612.72
2022-12-03T00:29:36.091Z,102609.66
2022-12-03T00:32:02.510Z,102606.47
2022-12-03T00:34:28.934Z,102606.22
2022-12-03T00:36:55.447Z,102606.00
2022-12-03T00:39:21.989Z,102595.50
2022-12-03T00:41:48.518Z,102596.53
2022-12-03T00:44:14.854Z,102593.91
2022-12-03T00:46:41.399Z,102593.91
2022-12-03T00:49:08.790Z,102583.19
2022-12-03T00:51:35.785Z,102579.78
2022-12-03T00:54:02.292Z,102586.25
2022-12-03T00:56:28.774Z,102587.06
2022-12-03T00:58:55.197Z,102581.25
2022-12-03T01:01:25.531Z,102581.03
2022-12-03T01:03:51.951Z,102578.81
2022-12-03T01:06:18.350Z,102580.22
2022-12-03T01:08:44.794Z,102573.94
2022-12-03T01:11:31.066Z,102573.38
2022-12-03T01:13:57.424Z,102573.94
2022-12-03T01:16:27.509Z,102572.34
2022-12-03T01:18:55.034Z,102573.94
2022-12-03T01:21:21.364Z,102572.34
2022-12-03T01:23:47.763Z,102576.41
2022-12-03T01:26:14.205Z,102565.50
2022-12-03T01:28:41.986Z,102555.00
2022-12-03T01:31:27.840Z,102560.25
2022-12-03T01:33:54.341Z,102558.44
2022-12-03T01:36:21.038Z,102565.06
2022-12-03T01:38:48.700Z,102567.44
2022-12-03T01:41:17.480Z,102568.47
2022-12-03T01:43:44.118Z,102574.97
2022-12-03T01:46:16.793Z,102570.94
2022-12-03T01:48:44.065Z,102563.88
2022-12-03T01:51:12.066Z,102568.69
2022-12-03T01:53:38.492Z,102567.91
2022-12-03T01:56:05.089Z,102564.25
2022-12-03T01:58:31.678Z,102560.03
2022-12-03T02:01:01.711Z,102566.66
2022-12-03T02:03:28.424Z,102561.41
2022-12-03T02:05:54.817Z,102556.94
2022-12-03T02:08:31.957Z,102555.97
2022-12-03T02:11:02.321Z,102564.03
2022-12-03T02:13:28.909Z,102561.78
2022-12-03T02:15:55.487Z,102552.53
2022-12-03T02:18:21.880Z,102558.13
2022-12-03T02:21:26.959Z,102554.13
2022-12-03T02:24:07.590Z,102554.72
2022-12-03T02:26:33.947Z,102560.19
2022-12-03T02:29:01.262Z,102546.84
2022-12-03T02:31:29.975Z,102552.66
2022-12-03T02:33:56.652Z,102557.09
2022-12-03T02:36:23.377Z,102559.31
2022-12-03T02:38:50.995Z,102559.06
2022-12-03T02:41:39.145Z,102549.59
2022-12-03T02:44:08.327Z,102557.47
2022-12-03T02:46:35.464Z,102556.44
2022-12-03T02:49:03.623Z,102552.47
2022-12-03T02:51:31.151Z,102548.00
2022-12-03T02:53:57.939Z,102550.03
2022-12-03T02:56:29.530Z,102542.75
2022-12-03T02:59:00.499Z,102548.59
2022-12-03T03:01:27.139Z,102550.78
2022-12-03T03:03:54.014Z,102546.34
2022-12-03T03:06:21.303Z,102541.31
2022-12-03T03:08:48.152Z,102537.66
2022-12-03T03:11:14.878Z,102542.44
2022-12-03T03:13:41.318Z,102533.78
2022-12-03T03:16:08.576Z,102530.34
2022-12-03T03:18:35.809Z,102531.94
2022-12-03T03:21:03.804Z,102532.56
2022-12-03T03:23:30.437Z,102533.94
2022-12-03T03:26:01.049Z,102530.50
2022-12-03T03:28:30.156Z,102530.50
2022-12-03T03:30:58.798Z,102525.03
2022-12-03T03:33:25.196Z,102523.19
2022-12-03T03:35:51.805Z,102524.81
2022-12-03T03:38:20.414Z,102523.81
2022-12-03T03:40:50.684Z,102522.78
2022-12-03T03:43:17.594Z,102513.50
2022-12-03T03:45:51.499Z,102519.34
2022-12-03T03:48:18.744Z,102516.94
2022-12-03T03:50:45.709Z,102520.38
2022-12-03T03:53:12.989Z,102518.56
2022-12-03T03:55:39.659Z,102508.47
2022-12-03T03:58:15.037Z,102517.75
2022-12-03T04:00:45.088Z,102511.69
2022-12-03T04:03:23.869Z,102504.03
2022-12-03T04:05:52.416Z,102512.50
2022-12-03T04:08:19.353Z,102514.31
2022-12-03T04:11:04.407Z,102507.25
2022-12-03T04:13:30.979Z,102503.84
2022-12-03T04:15:57.342Z,102499.16
2022-12-03T04:18:42.325Z,102513.88
2022-12-03T04:21:38.702Z,102501.78
2022-12-03T04:24:06.559Z,102501.78
2022-12-03T04:26:51.886Z,102497.31
2022-12-03T04:29:19.672Z,102499.16
2022-12-03T04:32:06.277Z,102499.38
2022-12-03T04:35:08.397Z,102500.19
2022-12-03T04:37:34.849Z,102478.38
2022-12-03T04:40:01.293Z,102493.34
2022-12-03T04:42:27.645Z,102487.25
2022-12-03T04:44:54.313Z,102487.06
2022-12-03T04:47:21.975Z,102484.44
2022-12-03T04:49:50.765Z,102486.03
2022-12-03T04:52:19.278Z,102487.63
2022-12-03T04:54:45.688Z,102482.84
2022-12-03T04:57:12.328Z,102492.31
2022-12-03T04:59:38.869Z,102488.88
2022-12-03T05:02:06.561Z,102486.47
2022-12-03T05:04:33.610Z,102488.88
2022-12-03T05:06:59.956Z,102482.84
2022-12-03T05:09:26.275Z,102486.47
2022-12-03T05:11:52.617Z,102490.91
2022-12-03T05:14:19.154Z,102493.53
2022-12-03T05:16:45.607Z,102483.84
2022-12-03T05:19:12.103Z,102479.59
2022-12-03T05:21:38.653Z,102483.25
2022-12-03T05:24:05.773Z,102484.53
2022-12-03T05:26:32.271Z,102491.00
2022-12-03T05:28:58.670Z,102485.75
2022-12-03T05:31:25.107Z,102483.13
2022-12-03T05:33:51.554Z,102476.50
2022-12-03T05:36:17.937Z,102483.59
2022-12-03T05:38:44.393Z,102469.88
2022-12-03T05:41:37.121Z,102476.50
2022-12-03T05:44:03.484Z,102472.84
2022-12-03T05:46:30.048Z,102474.22
2022-12-03T05:48:57.485Z,102477.66
2022-12-03T05:51:23.886Z,102467.94
2022-12-03T05:53:50.210Z,102466.34
2022-12-03T05:56:16.607Z,102463.72
2022-12-03T05:58:43.032Z,102462.94
2022-12-03T06:01:09.386Z,102457.69
2022-12-03T06:03:36.269Z,102456.09
2022-12-03T06:06:02.726Z,102456.09
2022-12-03T06:08:29.082Z,102459.50
2022-12-03T06:10:55.479Z,102450.84
2022-12-03T06:13:21.837Z,102454.25
2022-12-03T06:15:48.261Z,102455.06
2022-12-03T06:18:14.814Z,102443.19
2022-12-03T06:20:42.215Z,102450.25
2022-12-03T06:23:08.779Z,102438.16
2022-12-03T06:25:35.218Z,102440.75
2022-12-03T06:28:01.544Z,102440.75
2022-12-03T06:30:27.981Z,102441.00
2022-12-03T06:32:54.647Z,102441.59
2022-12-03T06:35:20.966Z,102441.00
2022-12-03T06:37:47.302Z,102448.63
2022-12-03T06:40:14.318Z,102446.84
2022-12-03T06:42:40.667Z,102447.19
2022-12-03T06:45:07.140Z,102436.34
2022-12-03T06:47:33.484Z,102438.16
2022-12-03T06:50:02.158Z,102439.97
2022-12-03T06:52:28.661Z,102444.66
2022-12-03T06:54:55.214Z,102437.81
2022-12-03T06:57:31.238Z,102438.59
2022-12-03T06:59:57.814Z,102444.66
2022-12-03T07:02:24.528Z,102435.97
2022-12-03T07:04:50.975Z,102449.91
2022-12-03T07:07:17.301Z,102443.84
2022-12-03T07:09:44.782Z,102444.88
2022-12-03T07:12:11.146Z,102444.09
2022-12-03T07:14:42.314Z,102450.94
2022-12-03T07:17:08.606Z,102455.38
2022-12-03T07:19:36.772Z,102451.94
2022-12-03T07:22:03.307Z,102462.66
2022-12-03T07:24:33.552Z,102453.97
2022-12-03T07:26:59.921Z,102461.28
2022-12-03T07:29:26.347Z,102451.81
2022-12-03T07:31:52.701Z,102464.94
2022-12-03T07:34:19.048Z,102456.84
2022-12-03T07:36:45.370Z,102460.25
2022-12-03T07:39:13.258Z,102465.97
2022-12-03T07:41:39.594Z,102468.59
2022-12-03T07:44:12.411Z,102460.13
2022-12-03T07:46:40.549Z,102467.41
2022-12-03T07:49:09.157Z,102467.84
2022-12-03T07:51:35.874Z,102467.28
2022-12-03T07:54:02.183Z,102472.88
2022-12-03T07:56:28.518Z,102472.06
2022-12-03T07:58:57.303Z,102472.06
2022-12-03T08:01:32.187Z,102466.25
2022-12-03T08:03:58.726Z,102463.84
2022-12-03T08:06:25.033Z,102466.47
2022-12-03T08:08:51.436Z,102463.06
2022-12-03T08:11:17.772Z,102456.78
2022-12-03T08:13:44.127Z,102457.00
2022-12-03T08:16:25.732Z,102463.06
2022-12-03T08:18:54.885Z,102453.34
2022-12-03T08:21:22.710Z,102459.41
2022-12-03T08:23:49.214Z,102447.31
2022-12-03T08:26:26.112Z,102451.75
2022-12-03T08:28:53.429Z,102439.63
2022-12-03T08:31:28.037Z,102448.09
2022-12-03T08:34:15.343Z,102440.00
2022-12-03T08:36:41.647Z,102452.09
2022-12-03T08:39:25.973Z,102447.09
2022-12-03T08:42:15.597Z,102442.63
2022-12-03T08:44:41.999Z,102446.84
2022-12-03T08:47:35.239Z,102443.19
2022-12-03T08:50:32.217Z,102441.47
2022-12-03T08:53:14.631Z,102444.09
2022-12-03T08:55:54.065Z,102444.47
2022-12-03T08:58:38.099Z,102442.63
2022-12-03T09:01:10.542Z,102435.56
2022-12-03T09:03:50.383Z,102442.22
2022-12-03T09:06:17.077Z,102438.97
2022-12-03T09:08:43.655Z,102432.16
2022-12-03T09:11:12.027Z,102431.56
2022-12-03T09:13:38.513Z,102429.97
2022-12-03T09:16:05.146Z,102422.31
2022-12-03T09:18:32.429Z,102424.13
2022-12-03T09:20:58.839Z,102421.50
2022-12-03T09:23:25.137Z,102424.38
2022-12-03T09:25:51.430Z,102421.16
2022-12-03T09:28:17.760Z,102421.16
2022-12-03T09:30:44.075Z,102423.09
2022-12-03T09:33:10.535Z,102415.47
2022-12-03T09:35:37.348Z,102421.38
2022-12-03T09:38:03.684Z,102424.88
2022-12-03T09:40:30.131Z,102423.94
2022-12-03T09:42:58.705Z,102433.06
2022-12-03T09:45:27.191Z,102432.81
2022-12-03T09:47:54.913Z,102433.25
2022-12-03T09:50:25.223Z,102425.19
2022-12-03T09:52:54.787Z,102422.56
2022-12-03T09:55:24.088Z,102426.78
2022-12-03T09:57:52.655Z,102427.81
2022-12-03T10:00:25.490Z,102426.41
2022-12-03T10:02:54.722Z,102429.81
2022-12-03T10:05:22.521Z,102426.22
2022-12-03T10:07:50.591Z,102438.72
2022-12-03T10:10:20.870Z,102439.19
2022-12-03T10:12:47.607Z,102434.94
2022-12-03T10:15:17.872Z,102442.22
2022-12-03T10:17:46.272Z,102435.16
2022-12-03T10:20:16.934Z,102421.03
2022-12-03T10:22:43.467Z,102428.09
2022-12-03T10:25:15.842Z,102434.34
2022-12-03T10:27:42.923Z,102428.53
2022-12-03T10:30:19.586Z,102424.31
2022-12-03T10:32:50.323Z,102426.78
2022-12-03T10:35:24.646Z,102425.78
2022-12-03T10:38:23.048Z,102424.81
2022-12-03T10:40:49.597Z,102417.59
2022-12-03T10:43:25.138Z,102418.41
2022-12-03T10:46:04.853Z,102412.50
2022-12-03T10:48:31.414Z,102405.44
2022-12-03T10:51:21.330Z,102398.84
2022-12-03T10:53:49.238Z,102398.38
2022-12-03T10:56:26.443Z,102397.34
2022-12-03T10:58:53.116Z,102392.50
2022-12-03T11:01:24.755Z,102392.91
2022-12-03T11:03:52.444Z,102389.63
2022-12-03T11:06:21.775Z,102385.66
2022-12-03T11:08:57.514Z,102390.91
2022-12-03T11:11:30.839Z,102386.44
2022-12-03T11:13:59.218Z,102382.00
2022-12-03T11:16:51.798Z,102384.84
2022-12-03T11:19:36.438Z,102371.94
2022-12-03T11:22:05.881Z,102378.44
2022-12-03T11:24:34.770Z,102364.75
2022-12-03T11:27:01.867Z,102372.03
2022-12-03T11:29:48.820Z,102364.63
2022-12-03T11:32:45.204Z,102362.34
2022-12-03T11:35:23.856Z,102350.25
2022-12-03T11:37:50.326Z,102353.44
2022-12-03T11:40:18.119Z,102356.44
2022-12-03T11:42:46.609Z,102344.94
2022-12-03T11:45:22.642Z,102344.94
2022-12-03T11:47:58.240Z,102347.00
2022-12-03T11:50:39.064Z,102339.69
2022-12-03T11:53:26.861Z,102338.31
2022-12-03T11:56:12.301Z,102339.13
2022-12-03T11:58:42.290Z,102337.31
2022-12-03T12:01:08.956Z,102332.06
2022-12-03T12:03:47.458Z,102340.72
2022-12-03T12:06:20.400Z,102326.44
2022-12-03T12:08:49.746Z,102324.06
2022-12-03T12:11:20.118Z,102323.03
2022-12-03T12:13:53.409Z,102316.75
2022-12-03T12:16:58.438Z,102319.97
2022-12-03T12:19:29.644Z,102320.53
2022-12-03T12:22:12.486Z,102315.97
2022-12-03T12:24:47.768Z,102308.91
2022-12-03T12:27:29.501Z,102303.44
2022-12-03T12:29:58.607Z,102304.81
2022-12-03T12:32:34.640Z,102304.25
2022-12-03T12:35:18.876Z,102293.53
2022-12-03T12:38:00.826Z,102286.94
2022-12-03T12:40:30.343Z,102289.31
2022-12-03T12:43:09.942Z,102289.75
2022-12-03T12:45:46.671Z,102286.13
2022-12-03T12:48:29.006Z,102281.09
2022-12-03T12:51:11.211Z,102278.28
2022-12-03T12:53:39.524Z,102278.59
2022-12-03T12:56:18.847Z,102279.72
2022-12-03T12:58:48.576Z,102279.50
2022-12-03T13:01:37.437Z,102286.34
2022-12-03T13:04:15.689Z,102277.34
2022-12-03T13:06:47.122Z,102276.50
2022-12-03T13:09:24.506Z,102269.00
2022-12-03T13:12:06.370Z,102268.78
2022-12-03T13:14:43.851Z,102272.00
2022-12-03T13:17:22.451Z,102276.66
2022-12-03T13:19:53.998Z,102272.19
2022-12-03T13:22:28.158Z,102270.28
2022-12-03T13:25:00.173Z,102270.28
2022-12-03T13:27:36.762Z,102273.47
2022-12-03T13:30:21.086Z,102267.19
2022-12-03T13:32:47.533Z,102264.34
2022-12-03T13:35:24.878Z,102259.47
2022-12-03T13:37:51.487Z,102257.88
2022-12-03T13:40:27.654Z,102257.50
2022-12-03T13:42:55.074Z,102248.19
2022-12-03T13:45:24.580Z,102248.19
2022-12-03T13:47:57.453Z,102248.41
2022-12-03T13:50:44.931Z,102240.19
2022-12-03T13:53:11.359Z,102242.38
2022-12-03T13:55:45.007Z,102240.19
2022-12-03T13:58:11.350Z,102241.22
2022-12-03T14:00:37.862Z,102244.50
2022-12-03T14:03:05.674Z,102241.88
2022-12-03T14:05:32.110Z,102250.53
2022-12-03T14:08:01.800Z,102238.69
2022-12-03T14:10:29.431Z,102235.47
2022-12-03T14:12:56.611Z,102245.38
2022-12-03T14:15:24.905Z,102238.97
2022-12-03T14:17:51.322Z,102242.25
2022-12-03T14:20:18.598Z,102232.47
2022-12-03T14:22:45.248Z,102228.44
2022-12-03T14:25:15.682Z,102228.22
2022-12-03T14:27:42.247Z,102228.09
2022-12-03T14:30:09.510Z,102223.88
2022-12-03T14:32:37.221Z,102221.69
2022-12-03T14:35:08.317Z,102225.69
2022-12-03T14:37:36.331Z,102230.13
2022-12-03T14:40:05.777Z,102227.50
2022-12-03T14:42:32.147Z,102231.38
2022-12-03T14:44:58.505Z,102223.88
2022-12-03T14:47:25.049Z,102224.47
2022-12-03T14:49:52.544Z,102222.88
2022-12-03T14:52:20.018Z,102222.88
2022-12-03T14:54:46.515Z,102228.91
2022-12-03T14:57:15.724Z,102228.09
2022-12-03T14:59:46.859Z,102238.00
2022-12-03T15:02:13.745Z,102233.78
2022-12-03T15:04:41.147Z,102231.38
2022-12-03T15:07:08.816Z,102222.72
2022-12-03T15:09:36.514Z,102225.91
2022-12-03T15:12:03.889Z,102227.38
2022-12-03T15:14:30.307Z,102226.00
2022-12-03T15:16:56.876Z,102224.19
2022-12-03T15:19:23.261Z,102226.81
2022-12-03T15:21:56.532Z,102219.97
2022-12-03T15:24:27.606Z,102213.94
2022-12-03T15:26:54.099Z,102229.84
2022-12-03T15:29:21.334Z,102221.00
2022-12-03T15:31:47.707Z,102225.19
2022-12-03T15:34:23.170Z,102222.34
2022-12-03T15:36:50.359Z,102218.94
2022-12-03T15:39:16.877Z,102223.81
2022-12-03T15:41:48.102Z,102221.19
2022-12-03T15:44:14.522Z,102226.44
2022-12-03T15:46:52.324Z,102225.06
2022-12-03T15:49:19.206Z,102230.53
2022-12-03T15:51:45.896Z,102224.25
2022-12-03T15:54:12.466Z,102228.91
2022-12-03T15:56:38.922Z,102236.75
2022-12-03T15:59:05.359Z,102235.97
2022-12-03T16:01:32.111Z,102238.00
2022-12-03T16:03:58.540Z,102231.19
2022-12-03T16:06:24.846Z,102234.38
2022-12-03T16:08:51.158Z,102233.56
2022-12-03T16:11:17.565Z,102231.19
2022-12-03T16:13:47.228Z,102230.38
2022-12-03T16:16:13.889Z,102238.66
2022-12-03T16:18:47.912Z,102228.97
2022-12-03T16:21:14.481Z,102232.41
2022-12-03T16:23:45.456Z,102230.00
2022-12-03T16:26:11.973Z,102224.19
2022-12-03T16:28:38.294Z,102227.63
2022-12-03T16:31:04.822Z,102220.41
2022-12-03T16:33:45.555Z,102221.44
2022-12-03T16:36:20.240Z,102228.28
2022-12-03T16:38:46.727Z,102232.25
2022-12-03T16:41:13.272Z,102224.25
2022-12-03T16:43:41.229Z,102219.69
2022-12-03T16:46:17.167Z,102215.25
2022-12-03T16:48:43.617Z,102199.97
2022-12-03T16:51:10.468Z,102202.59
2022-12-03T16:53:41.658Z,102214.09
2022-12-03T16:56:08.698Z,102212.84
2022-12-03T16:58:35.151Z,102199.75
2022-12-03T17:01:01.960Z,102206.47
2022-12-03T17:03:33.565Z,102205.44
2022-12-03T17:06:07.142Z,102201.22
2022-12-03T17:08:33.735Z,102202.03
2022-12-03T17:11:00.988Z,102205.66
2022-12-03T17:13:38.868Z,102200.63
2022-12-03T17:16:08.129Z,102210.28
2022-12-03T17:18:37.084Z,102210.91
2022-12-03T17:21:03.633Z,102215.91
2022-12-03T17:23:29.934Z,102217.50
2022-12-03T17:25:56.363Z,102208.06
2022-12-03T17:28:22.719Z,102201.66
2022-12-03T17:30:49.245Z,102205.13
2022-12-03T17:33:15.804Z,102204.56
2022-12-03T17:35:43.203Z,102208.22
2022-12-03T17:38:09.553Z,102211.41
2022-12-03T17:40:35.919Z,102213.44
2022-12-03T17:43:02.247Z,102210.22
2022-12-03T17:45:28.760Z,102214.44
2022-12-03T17:48:04.727Z,102207.59
2022-12-03T17:50:31.298Z,102203.41
2022-12-03T17:52:59.013Z,102205.22
2022-12-03T17:55:41.211Z,102204.41
2022-12-03T17:58:10.788Z,102201.72
2022-12-03T18:00:37.158Z,102207.53
2022-12-03T18:03:03.578Z,102204.91
2022-12-03T18:05:30.005Z,102200.06
2022-12-03T18:07:56.564Z,102204.03
2022-12-03T18:10:22.919Z,102204.25
2022-12-03T18:12:49.255Z,102196.41
2022-12-03T18:15:15.613Z,102195.63
2022-12-03T18:17:41.950Z,102190.59
2022-12-03T18:20:08.453Z,102193.44
2022-12-03T18:22:35.353Z,102183.97
2022-12-03T18:25:02.115Z,102183.97
2022-12-03T18:27:28.457Z,102187.84
2022-12-03T18:29:58.119Z,102188.88
2022-12-03T18:32:29.689Z,102185.44
2022-12-03T18:34:57.294Z,102185.66
2022-12-03T18:37:26.723Z,102183.03
2022-12-03T18:39:53.672Z,102171.56
2022-12-03T18:42:21.949Z,102172.13
2022-12-03T18:44:50.212Z,102181.22
2022-12-03T18:47:20.512Z,102182.03
2022-12-03T18:49:47.273Z,102183.19
2022-12-03T18:52:15.312Z,102174.31
2022-12-03T18:54:41.776Z,102170.69
2022-12-03T18:57:08.771Z,102174.91
2022-12-03T18:59:35.247Z,102176.50
2022-12-03T19:02:01.728Z,102177.53
2022-12-03T19:04:28.227Z,102175.19
2022-12-03T19:06:56.266Z,102172.78
2022-12-03T19:09:22.878Z,102169.16
2022-12-03T19:11:49.396Z,102168.00
2022-12-03T19:14:15.690Z,102170.41
2022-12-03T19:16:45.580Z,102176.44
2022-12-03T19:19:12.063Z,102175.84
2022-12-03T19:21:38.470Z,102175.84
2022-12-03T19:24:23.789Z,102168.34
2022-12-03T19:26:54.602Z,102172.13
2022-12-03T19:29:23.166Z,102177.59
2022-12-03T19:31:51.200Z,102171.19
2022-12-03T19:34:18.009Z,102163.56
2022-12-03T19:36:44.415Z,102173.59
2022-12-03T19:39:11.164Z,102165.72
2022-12-03T19:41:37.612Z,102161.75
2022-12-03T19:44:10.600Z,102165.16
2022-12-03T19:46:37.429Z,102167.19
2022-12-03T19:49:05.303Z,102167.63
2022-12-03T19:51:35.365Z,102155.91
2022-12-03T19:54:06.736Z,102151.06
2022-12-03T19:56:33.548Z,102156.84
2022-12-03T19:59:12.334Z,102148.66
2022-12-03T20:01:44.183Z,102157.53
2022-12-03T20:04:11.585Z,102153.09
2022-12-03T20:06:39.744Z,102146.13
2022-12-03T20:09:12.657Z,102153.16
2022-12-03T20:11:41.140Z,102156.78
2022-12-03T20:14:15.542Z,102163.41
2022-12-03T20:16:42.467Z,102161.22
2022-12-03T20:19:19.689Z,102167.25
2022-12-03T20:21:46.462Z,102167.25
2022-12-03T20:24:15.551Z,102164.88
2022-12-03T20:26:42.393Z,102157.00
2022-12-03T20:29:18.017Z,102147.91
2022-12-03T20:31:44.465Z,102153.75
2022-12-03T20:34:11.218Z,102156.59
2022-12-03T20:36:37.822Z,102153.97
2022-12-03T20:39:06.517Z,102145.91
2022-12-03T20:41:35.571Z,102144.66
2022-12-03T20:44:03.035Z,102146.47
2022-12-03T20:46:31.313Z,102141.47
2022-12-03T20:48:58.530Z,102144.31
2022-12-03T20:51:27.606Z,102140.06
2022-12-03T20:53:55.374Z,102127.81
2022-12-03T20:56:24.750Z,102123.00
2022-12-03T20:58:51.168Z,102124.03
2022-12-03T21:01:26.495Z,102123.00
2022-12-03T21:03:55.339Z,102121.63
2022-12-03T21:06:23.174Z,102130.06
2022-12-03T21:08:58.499Z,102127.84
2022-12-03T21:11:30.276Z,102126.63
2022-12-03T21:13:57.714Z,102123.00
2022-12-03T21:16:59.021Z,102122.63
2022-12-03T21:19:18.254Z,102131.50
2022-12-03T21:21:44.629Z,102124.44
2022-12-03T21:24:12.431Z,102122.44
2022-12-03T21:26:39.291Z,102130.06
2022-12-03T21:29:05.795Z,102118.78
2022-12-03T21:31:32.400Z,102123.00
2022-12-03T21:33:59.031Z,102117.41
2022-12-03T21:36:25.662Z,102124.03
2022-12-03T21:38:52.706Z,102124.25
2022-12-03T21:41:19.279Z,102128.88
2022-12-03T21:43:45.898Z,102122.28
2022-12-03T21:47:12.464Z,102114.44
2022-12-03T21:49:04.129Z,102121.25
2022-12-03T21:51:30.606Z,102122.28
2022-12-03T21:53:56.981Z,102123.50
2022-12-03T21:56:23.527Z,102122.94
2022-12-03T21:58:52.879Z,102118.50
2022-12-03T22:01:24.089Z,102118.28
2022-12-03T22:03:50.745Z,102120.69
2022-12-03T22:06:17.959Z,102122.72
2022-12-03T22:08:44.470Z,102104.16
2022-12-03T22:11:18.922Z,102111.66
2022-12-03T22:13:45.740Z,102117.94
2022-12-03T22:16:15.861Z,102113.69
2022-12-03T22:18:42.893Z,102112.31
2022-12-03T22:21:12.043Z,102113.69
2022-12-03T22:23:39.147Z,102107.88
2022-12-03T22:26:14.458Z,102108.34
2022-12-03T22:28:46.468Z,102103.91
2022-12-03T22:31:13.721Z,102106.50
2022-12-03T22:33:40.601Z,102107.31
2022-12-03T22:36:18.051Z,102116.75
2022-12-03T22:38:46.786Z,102115.72
2022-12-03T22:41:14.479Z,102117.31
2022-12-03T22:43:41.151Z,102110.09
2022-12-03T22:46:12.117Z,102108.03
2022-12-03T22:48:39.538Z,102103.81
2022-12-03T22:51:13.119Z,102098.00
2022-12-03T22:53:39.475Z,102098.59
2022-12-03T22:56:06.178Z,102098.59
2022-12-03T22:58:32.597Z,102099.38
2022-12-03T23:01:02.924Z,102094.94
2022-12-03T23:03:30.445Z,102094.16
2022-12-03T23:05:57.799Z,102094.16
2022-12-03T23:08:24.189Z,102086.88
2022-12-03T23:10:52.541Z,102084.25
2022-12-03T23:13:20.864Z,102089.50
2022-12-03T23:15:49.219Z,102079.25
2022-12-03T23:18:16.414Z,102075.63
2022-12-03T23:20:45.166Z,102076.06
2022-12-03T23:23:11.710Z,102081.31
2022-12-03T23:25:38.345Z,102085.28
2022-12-03T23:28:05.470Z,102086.31
2022-12-03T23:30:36.055Z,102086.53
2022-12-03T23:33:03.159Z,102086.53
2022-12-03T23:35:29.557Z,102093.34
2022-12-03T23:37:55.861Z,102092.34
2022-12-03T23:40:22.251Z,102088.47
2022-12-03T23:42:48.914Z,102093.50
2022-12-03T23:45:15.644Z,102092.47
2022-12-03T23:47:42.215Z,102097.47
2022-12-03T23:50:09.032Z,102100.69
2022-12-03T23:52:36.434Z,102084.78
2022-12-03T23:55:03.148Z,102089.78
2022-12-03T23:57:29.681Z,102087.41
2022-12-03T23:59:56.597Z,102087.16
